createdAt,value
2023-02-08T00:01:11.097Z,33.13
2023-02-08T00:03:38.976Z,29.67
2023-02-08T00:06:07.837Z,32.03
2023-02-08T00:08:37.986Z,33.70
2023-02-08T00:11:07.134Z,34.10
2023-02-08T00:13:35.388Z,34.07
2023-02-08T00:16:07.347Z,32.00
2023-02-08T00:18:35.109Z,40.13
2023-02-08T00:21:07.791Z,32.03
2023-02-08T00:23:37.113Z,29.33
2023-02-08T00:26:07.799Z,27.60
2023-02-08T00:28:35.584Z,29.63
2023-02-08T00:31:03.544Z,31.37
2023-02-08T00:33:31.297Z,33.30
2023-02-08T00:36:00.835Z,32.43
2023-02-08T00:38:28.755Z,32.20
2023-02-08T00:40:57.990Z,29.00
2023-02-08T00:43:25.769Z,33.37
2023-02-08T00:45:57.664Z,32.80
2023-02-08T00:48:25.346Z,36.67
2023-02-08T00:51:01.556Z,30.73
2023-02-08T00:53:29.656Z,32.50
2023-02-08T00:56:03.338Z,30.23
2023-02-08T00:58:31.267Z,30.93
2023-02-08T01:00:59.207Z,29.97
2023-02-08T01:03:27.039Z,29.83
2023-02-08T01:05:54.991Z,32.20
2023-02-08T01:08:22.699Z,28.50
2023-02-08T01:10:50.433Z,28.50
2023-02-08T01:13:19.684Z,32.87
2023-02-08T01:15:47.438Z,32.77
2023-02-08T01:18:15.165Z,32.43
2023-02-08T01:20:42.886Z,30.23
2023-02-08T01:23:10.782Z,31.80
2023-02-08T01:25:38.579Z,34.03
2023-02-08T01:28:07.668Z,29.47
2023-02-08T01:30:38.000Z,31.40
2023-02-08T01:33:05.715Z,32.13
2023-02-08T01:35:33.408Z,36.83
2023-02-08T01:38:01.084Z,33.50
2023-02-08T01:40:28.829Z,33.00
2023-02-08T01:42:59.942Z,34.37
2023-02-08T01:45:30.165Z,32.00
2023-02-08T01:48:05.635Z,34.70
2023-02-08T01:50:41.324Z,36.87
2023-02-08T01:53:09.472Z,31.63
2023-02-08T01:55:44.023Z,38.00
2023-02-08T01:58:15.628Z,32.50
2023-02-08T02:00:43.704Z,33.93
2023-02-08T02:03:12.984Z,34.47
2023-02-08T02:05:46.214Z,31.53
2023-02-08T02:08:14.501Z,35.30
2023-02-08T02:10:43.803Z,30.50
2023-02-08T02:13:14.728Z,35.37
2023-02-08T02:15:44.855Z,32.83
2023-02-08T02:18:18.171Z,33.13
2023-02-08T02:21:07.869Z,31.53
2023-02-08T02:24:12.667Z,32.80
2023-02-08T02:27:07.866Z,28.63
2023-02-08T02:30:06.795Z,29.35
2023-02-08T02:32:48.824Z,35.00
2023-02-08T02:35:20.902Z,29.67
2023-02-08T02:38:00.452Z,32.00
2023-02-08T02:40:38.151Z,30.50
2023-02-08T02:43:30.636Z,32.87
2023-02-08T02:46:05.786Z,34.90
2023-02-08T02:48:43.351Z,33.80
2023-02-08T02:51:16.313Z,35.30
2023-02-08T02:53:51.548Z,34.17
2023-02-08T02:56:23.008Z,35.77
2023-02-08T02:58:53.938Z,33.00
2023-02-08T03:01:26.787Z,36.47
2023-02-08T03:03:56.189Z,34.27
2023-02-08T03:06:34.889Z,35.27
2023-02-08T03:09:27.910Z,32.57
2023-02-08T03:12:03.770Z,37.17
2023-02-08T03:14:39.832Z,33.87
2023-02-08T03:17:24.065Z,33.13
2023-02-08T03:20:03.548Z,32.23
2023-02-08T03:22:41.123Z,31.33
2023-02-08T03:25:13.607Z,41.90
2023-02-08T03:28:04.200Z,34.80
2023-02-08T03:30:37.003Z,38.57
2023-02-08T03:33:14.033Z,40.03
2023-02-08T03:35:48.706Z,33.20
2023-02-08T03:38:22.493Z,34.90
2023-02-08T03:40:53.848Z,32.77
2023-02-08T03:43:26.389Z,36.83
2023-02-08T03:45:58.808Z,34.87
2023-02-08T03:48:28.121Z,37.80
2023-02-08T03:50:59.473Z,44.70
2023-02-08T03:53:28.656Z,34.73
2023-02-08T03:56:06.683Z,39.47
2023-02-08T03:58:40.786Z,37.60
2023-02-08T04:01:19.753Z,34.37
2023-02-08T04:03:50.121Z,43.87
2023-02-08T04:06:19.272Z,34.33
2023-02-08T04:08:47.173Z,39.47
2023-02-08T04:11:14.919Z,37.60
2023-02-08T04:13:42.622Z,37.70
2023-02-08T04:16:12.715Z,35.10
2023-02-08T04:18:40.575Z,41.17
2023-02-08T04:21:08.493Z,39.03
2023-02-08T04:23:37.568Z,38.87
2023-02-08T04:26:07.571Z,38.93
2023-02-08T04:28:35.440Z,34.00
2023-02-08T04:31:03.223Z,42.00
2023-02-08T04:33:30.992Z,33.93
2023-02-08T04:35:58.672Z,36.10
2023-02-08T04:38:26.392Z,35.27
2023-02-08T04:40:55.474Z,36.83
2023-02-08T04:43:25.811Z,39.00
2023-02-08T04:45:56.437Z,34.80
2023-02-08T04:48:24.150Z,37.37
2023-02-08T04:50:52.369Z,33.17
2023-02-08T04:53:20.072Z,32.77
2023-02-08T04:55:47.801Z,32.50
2023-02-08T04:58:17.182Z,36.27
2023-02-08T05:00:44.958Z,39.23
2023-02-08T05:03:13.273Z,37.40
2023-02-08T05:05:40.961Z,38.43
2023-02-08T05:08:11.544Z,34.73
2023-02-08T05:10:44.849Z,39.23
2023-02-08T05:13:12.586Z,36.20
2023-02-08T05:15:41.685Z,38.63
2023-02-08T05:18:12.651Z,40.47
2023-02-08T05:20:40.642Z,43.00
2023-02-08T05:23:08.492Z,37.07
2023-02-08T05:25:36.184Z,38.87
2023-02-08T05:28:03.997Z,33.70
2023-02-08T05:30:31.766Z,34.33
2023-02-08T05:33:00.806Z,39.47
2023-02-08T05:35:28.493Z,39.97
2023-02-08T05:37:56.295Z,38.07
2023-02-08T05:40:24.014Z,40.63
2023-02-08T05:42:51.793Z,35.63
2023-02-08T05:45:20.851Z,43.47
2023-02-08T05:47:48.552Z,42.70
2023-02-08T05:50:20.095Z,38.70
2023-02-08T05:52:47.844Z,40.70
2023-02-08T05:55:15.575Z,38.17
2023-02-08T05:57:43.319Z,41.87
2023-02-08T06:00:12.160Z,42.07
2023-02-08T06:02:39.887Z,46.97
2023-02-08T06:05:08.470Z,39.40
2023-02-08T06:07:37.547Z,39.20
2023-02-08T06:10:05.826Z,40.33
2023-02-08T06:12:33.555Z,41.30
2023-02-08T06:15:01.229Z,38.27
2023-02-08T06:17:29.067Z,36.50
2023-02-08T06:19:56.781Z,36.43
2023-02-08T06:22:24.466Z,40.03
2023-02-08T06:24:55.908Z,36.83
2023-02-08T06:27:23.636Z,36.37
2023-02-08T06:29:51.368Z,35.40
2023-02-08T06:32:19.111Z,36.10
2023-02-08T06:34:48.247Z,40.03
2023-02-08T06:37:15.926Z,39.63
2023-02-08T06:39:43.683Z,42.60
2023-02-08T06:44:54.081Z,38.83
2023-02-08T06:47:22.450Z,38.97
2023-02-08T06:49:50.231Z,37.30
2023-02-08T06:52:18.273Z,36.90
2023-02-08T06:54:46.031Z,47.07
2023-02-08T06:57:14.209Z,40.10
2023-02-08T06:59:43.572Z,43.13
2023-02-08T07:02:14.560Z,45.60
2023-02-08T07:04:42.602Z,52.40
2023-02-08T07:07:10.646Z,45.37
2023-02-08T07:09:38.527Z,41.20
2023-02-08T07:12:06.825Z,45.00
2023-02-08T07:14:36.109Z,56.93
2023-02-08T07:17:05.396Z,53.17
2023-02-08T07:19:33.279Z,52.90
2023-02-08T07:22:06.684Z,57.57
2023-02-08T07:24:35.752Z,64.55
2023-02-08T07:27:04.181Z,56.23
2023-02-08T07:29:32.550Z,57.07
2023-02-08T07:32:01.532Z,53.03
2023-02-08T07:34:32.132Z,55.53
2023-02-08T07:36:59.954Z,54.10
2023-02-08T07:39:30.877Z,53.33
2023-02-08T07:41:59.336Z,51.80
2023-02-08T07:44:27.332Z,52.57
2023-02-08T07:46:55.441Z,46.10
2023-02-08T07:49:23.290Z,46.67
2023-02-08T07:51:52.418Z,47.53
2023-02-08T07:54:20.157Z,52.13
2023-02-08T07:56:48.021Z,54.05
2023-02-08T07:59:16.091Z,45.35
2023-02-08T08:01:43.841Z,45.93
2023-02-08T08:04:12.770Z,46.60
2023-02-08T08:06:40.611Z,41.63
2023-02-08T08:09:13.232Z,44.03
2023-02-08T08:11:41.028Z,50.83
2023-02-08T08:14:08.777Z,44.67
2023-02-08T08:16:36.614Z,43.95
2023-02-08T08:19:04.489Z,47.08
2023-02-08T08:21:35.127Z,42.28
2023-02-08T08:24:02.823Z,43.55
2023-02-08T08:26:33.704Z,42.65
2023-02-08T08:29:07.913Z,46.08
2023-02-08T08:31:36.835Z,42.50
2023-02-08T08:34:04.609Z,45.42
2023-02-08T08:36:32.362Z,45.15
2023-02-08T08:39:00.134Z,46.22
2023-02-08T08:41:28.553Z,46.78
2023-02-08T08:43:57.729Z,39.80
2023-02-08T08:46:25.946Z,42.45
2023-02-08T08:48:53.830Z,37.20
2023-02-08T08:51:24.652Z,40.53
2023-02-08T08:53:52.439Z,37.00
2023-02-08T08:56:20.217Z,34.13
2023-02-08T08:58:48.013Z,35.05
2023-02-08T09:01:17.297Z,30.10
2023-02-08T09:03:45.061Z,36.70
2023-02-08T09:06:13.183Z,36.05
2023-02-08T09:08:41.342Z,37.58
2023-02-08T09:11:11.271Z,34.38
2023-02-08T09:13:39.333Z,33.65
2023-02-08T09:16:11.051Z,43.42
2023-02-08T09:18:40.590Z,35.83
2023-02-08T09:21:09.414Z,31.67
2023-02-08T09:23:40.569Z,32.85
2023-02-08T09:26:11.490Z,36.30
2023-02-08T09:28:39.604Z,34.47
2023-02-08T09:31:11.592Z,32.72
2023-02-08T09:33:40.885Z,30.45
2023-02-08T09:36:09.508Z,32.70
2023-02-08T09:38:37.798Z,29.60
2023-02-08T09:41:17.206Z,34.92
2023-02-08T09:43:53.561Z,32.50
2023-02-08T09:46:24.990Z,36.20
2023-02-08T09:48:57.285Z,37.00
2023-02-08T09:51:31.629Z,35.78
2023-02-08T09:54:04.162Z,38.28
2023-02-08T09:56:36.325Z,40.42
2023-02-08T09:59:06.245Z,35.35
2023-02-08T10:01:36.888Z,34.88
2023-02-08T10:04:13.768Z,36.03
2023-02-08T10:06:42.079Z,38.28
2023-02-08T10:09:15.100Z,31.77
2023-02-08T10:11:56.753Z,40.35
2023-02-08T10:14:44.364Z,37.20
2023-02-08T10:17:34.937Z,31.90
2023-02-08T10:20:19.507Z,37.08
2023-02-08T10:22:57.199Z,30.77
2023-02-08T10:25:44.053Z,33.53
2023-02-08T10:28:25.805Z,32.80
2023-02-08T10:30:58.637Z,36.80
2023-02-08T10:33:35.251Z,39.17
2023-02-08T10:36:13.890Z,34.47
2023-02-08T10:38:46.871Z,38.25
2023-02-08T10:41:21.384Z,31.55
2023-02-08T10:43:55.596Z,32.97
2023-02-08T10:46:30.165Z,31.08
2023-02-08T10:49:08.880Z,30.60
2023-02-08T10:51:38.364Z,27.50
2023-02-08T10:54:06.341Z,30.52
2023-02-08T10:56:48.489Z,31.15
2023-02-08T10:59:22.705Z,31.80
2023-02-08T11:01:51.251Z,29.08
2023-02-08T11:04:19.651Z,29.42
2023-02-08T11:06:51.193Z,31.85
2023-02-08T11:09:29.048Z,32.17
2023-02-08T11:11:57.623Z,31.02
2023-02-08T11:14:41.008Z,27.92
2023-02-08T11:17:27.016Z,32.88
2023-02-08T11:19:55.162Z,29.67
2023-02-08T11:22:27.749Z,29.15
2023-02-08T11:24:58.468Z,29.40
2023-02-08T11:27:34.685Z,29.63
2023-02-08T11:30:21.896Z,30.42
2023-02-08T11:33:10.279Z,25.83
2023-02-08T11:35:38.205Z,27.20
2023-02-08T11:38:07.792Z,27.60
2023-02-08T11:40:38.718Z,32.17
2023-02-08T11:43:06.724Z,28.45
2023-02-08T11:45:37.159Z,29.55
2023-02-08T11:48:07.148Z,31.27
2023-02-08T11:50:37.737Z,27.40
2023-02-08T11:53:20.834Z,29.15
2023-02-08T11:56:03.870Z,30.42
2023-02-08T11:58:32.477Z,29.38
2023-02-08T12:01:02.527Z,23.15
2023-02-08T12:03:33.796Z,30.42
2023-02-08T12:06:18.757Z,33.55
2023-02-08T12:08:59.741Z,35.20
2023-02-08T12:11:36.780Z,30.08
2023-02-08T12:14:21.209Z,31.77
2023-02-08T12:16:56.788Z,34.50
2023-02-08T12:22:10.689Z,30.73
2023-02-08T12:24:48.704Z,29.92
2023-02-08T12:27:32.022Z,32.10
2023-02-08T12:30:09.373Z,30.98
2023-02-08T12:33:02.258Z,31.75
2023-02-08T12:36:04.494Z,32.00
2023-02-08T12:39:20.368Z,31.48
2023-02-08T12:42:05.075Z,30.83
2023-02-08T12:44:41.621Z,34.78
2023-02-08T12:47:24.829Z,28.67
2023-02-08T12:50:03.898Z,28.85
2023-02-08T12:52:38.011Z,28.30
2023-02-08T12:55:17.411Z,37.15
2023-02-08T12:57:50.792Z,38.53
2023-02-08T13:00:23.041Z,39.97
2023-02-08T13:02:58.281Z,39.70
2023-02-08T13:05:32.553Z,39.72
2023-02-08T13:08:12.925Z,38.45
2023-02-08T13:10:43.441Z,36.47
2023-02-08T13:13:20.333Z,38.17
2023-02-08T13:15:59.493Z,42.60
2023-02-08T13:18:31.103Z,40.45
2023-02-08T13:21:02.985Z,40.53
2023-02-08T13:23:38.447Z,42.88
2023-02-08T13:26:17.235Z,39.85
2023-02-08T13:28:50.658Z,35.88
2023-02-08T13:31:23.928Z,36.75
2023-02-08T13:34:01.716Z,39.47
2023-02-08T13:36:32.351Z,40.15
2023-02-08T13:39:02.314Z,40.10
2023-02-08T13:41:31.997Z,35.83
2023-02-08T13:44:04.569Z,39.15
2023-02-08T13:46:39.025Z,36.80
2023-02-08T13:49:06.821Z,40.03
2023-02-08T13:52:02.278Z,34.00
2023-02-08T13:54:30.368Z,31.67
2023-02-08T13:56:58.687Z,34.55
2023-02-08T13:59:41.232Z,35.72
2023-02-08T14:02:30.074Z,35.35
2023-02-08T14:05:36.705Z,34.20
2023-02-08T14:08:07.533Z,35.05
2023-02-08T14:10:45.828Z,35.70
2023-02-08T14:13:26.703Z,32.20
2023-02-08T14:16:30.426Z,42.53
2023-02-08T14:19:00.513Z,34.70
2023-02-08T14:21:34.309Z,32.65
2023-02-08T14:24:05.291Z,32.97
2023-02-08T14:26:36.464Z,33.13
2023-02-08T14:29:07.420Z,29.75
2023-02-08T14:31:43.746Z,26.38
2023-02-08T14:34:34.339Z,35.58
2023-02-08T14:37:06.982Z,27.13
2023-02-08T14:39:37.377Z,31.05
2023-02-08T14:42:08.711Z,23.77
2023-02-08T14:45:00.760Z,25.58
2023-02-08T14:48:05.308Z,24.45
2023-02-08T14:50:52.026Z,26.33
2023-02-08T14:53:26.655Z,27.30
2023-02-08T14:55:59.173Z,28.03
2023-02-08T14:58:33.453Z,25.05
2023-02-08T15:01:06.792Z,25.67
2023-02-08T15:03:36.082Z,26.67
2023-02-08T15:06:35.710Z,31.25
2023-02-08T15:09:04.209Z,25.80
2023-02-08T15:11:34.619Z,31.88
2023-02-08T15:14:05.959Z,27.27
2023-02-08T15:16:37.200Z,32.35
2023-02-08T15:19:06.969Z,39.45
2023-02-08T15:21:38.754Z,31.40
2023-02-08T15:24:15.684Z,29.65
2023-02-08T15:26:47.876Z,32.72
2023-02-08T15:29:30.106Z,25.45
2023-02-08T15:32:03.724Z,31.83
2023-02-08T15:34:31.522Z,31.88
2023-02-08T15:37:00.730Z,32.70
2023-02-08T15:39:35.543Z,33.15
2023-02-08T15:42:03.476Z,31.15
2023-02-08T15:44:33.389Z,33.55
2023-02-08T15:47:03.576Z,34.40
2023-02-08T15:49:34.794Z,35.67
2023-02-08T15:52:05.168Z,35.60
2023-02-08T15:54:36.355Z,42.22
2023-02-08T15:57:09.270Z,31.45
2023-02-08T15:59:40.824Z,31.20
2023-02-08T16:02:27.462Z,36.15
2023-02-08T16:04:56.002Z,36.97
2023-02-08T16:07:29.589Z,36.67
2023-02-08T16:09:58.742Z,45.60
2023-02-08T16:12:28.986Z,32.22
2023-02-08T16:14:57.310Z,36.67
2023-02-08T16:17:37.818Z,31.90
2023-02-08T16:20:24.277Z,35.60
2023-02-08T16:22:59.901Z,35.15
2023-02-08T16:25:43.391Z,35.03
2023-02-08T16:28:29.531Z,37.90
2023-02-08T16:31:02.668Z,39.05
2023-02-08T16:33:32.914Z,36.60
2023-02-08T16:36:02.933Z,34.67
2023-02-08T16:38:35.014Z,31.20
2023-02-08T16:41:13.009Z,40.33
2023-02-08T16:43:44.141Z,37.40
2023-02-08T16:46:25.382Z,33.90
2023-02-08T16:48:55.587Z,31.10
2023-02-08T16:51:26.521Z,33.30
2023-02-08T16:54:01.447Z,36.30
2023-02-08T16:56:29.632Z,31.52
2023-02-08T16:58:57.533Z,35.28
2023-02-08T17:01:29.004Z,35.88
2023-02-08T17:03:57.301Z,35.08
2023-02-08T17:06:30.248Z,33.05
2023-02-08T17:09:00.585Z,33.97
2023-02-08T17:11:29.101Z,33.05
2023-02-08T17:13:58.381Z,36.28
2023-02-08T17:16:28.639Z,33.50
2023-02-08T17:18:57.802Z,33.35
2023-02-08T17:21:26.130Z,33.42
2023-02-08T17:23:54.172Z,33.22
2023-02-08T17:26:27.498Z,30.58
2023-02-08T17:28:55.668Z,30.75
2023-02-08T17:31:25.063Z,34.97
2023-02-08T17:33:53.192Z,36.65
2023-02-08T17:36:21.181Z,39.05
2023-02-08T17:38:49.180Z,35.30
2023-02-08T17:41:19.668Z,33.15
2023-02-08T17:43:51.798Z,35.72
2023-02-08T17:46:21.950Z,32.88
2023-02-08T17:48:50.009Z,35.72
2023-02-08T17:51:20.684Z,34.22
2023-02-08T17:53:49.082Z,30.23
2023-02-08T17:56:21.556Z,36.10
2023-02-08T17:58:53.837Z,38.67
2023-02-08T18:01:24.122Z,37.22
2023-02-08T18:03:53.485Z,38.40
2023-02-08T18:06:23.109Z,33.00
2023-02-08T18:08:51.204Z,31.88
2023-02-08T18:11:20.803Z,32.40
2023-02-08T18:13:55.759Z,32.75
2023-02-08T18:16:25.214Z,33.72
2023-02-08T18:18:55.947Z,32.22
2023-02-08T18:21:25.491Z,35.55
2023-02-08T18:23:53.337Z,34.17
2023-02-08T18:26:23.055Z,39.75
2023-02-08T18:28:52.837Z,34.55
2023-02-08T18:31:21.852Z,39.30
2023-02-08T18:33:50.971Z,34.78
2023-02-08T18:36:19.359Z,38.08
2023-02-08T18:38:48.816Z,36.70
2023-02-08T18:41:19.951Z,38.38
2023-02-08T18:43:48.294Z,35.53
2023-02-08T18:46:21.637Z,40.05
2023-02-08T18:48:51.148Z,38.13
2023-02-08T18:51:19.900Z,37.42
2023-02-08T18:53:50.471Z,38.78
2023-02-08T18:56:21.455Z,45.10
2023-02-08T18:58:49.361Z,44.22
2023-02-08T19:01:20.287Z,44.15
2023-02-08T19:03:48.605Z,40.47
2023-02-08T19:06:18.214Z,41.45
2023-02-08T19:08:46.596Z,36.10
2023-02-08T19:11:16.696Z,34.63
2023-02-08T19:13:44.971Z,34.53
2023-02-08T19:16:13.504Z,39.30
2023-02-08T19:18:42.840Z,38.88
2023-02-08T19:21:12.191Z,33.63
2023-02-08T19:23:40.861Z,34.85
2023-02-08T19:26:19.683Z,35.05
2023-02-08T19:28:47.492Z,37.30
2023-02-08T19:31:18.143Z,37.90
2023-02-08T19:33:49.539Z,42.90
2023-02-08T19:36:18.921Z,36.78
2023-02-08T19:38:47.285Z,41.53
2023-02-08T19:41:18.211Z,35.28
2023-02-08T19:43:46.746Z,33.53
2023-02-08T19:46:16.295Z,32.78
2023-02-08T19:48:48.339Z,32.17
2023-02-08T19:51:16.149Z,35.35
2023-02-08T19:53:43.868Z,33.53
2023-02-08T19:56:15.199Z,32.15
2023-02-08T19:58:44.839Z,33.72
2023-02-08T20:01:15.810Z,42.72
2023-02-08T20:03:44.282Z,38.90
2023-02-08T20:06:19.419Z,32.30
2023-02-08T20:08:49.393Z,32.95
2023-02-08T20:11:19.563Z,39.08
2023-02-08T20:13:51.948Z,38.60
2023-02-08T20:16:21.819Z,34.05
2023-02-08T20:18:50.809Z,34.20
2023-02-08T20:21:21.026Z,38.10
2023-02-08T20:23:50.859Z,36.17
2023-02-08T20:26:21.389Z,35.47
2023-02-08T20:28:51.775Z,31.55
2023-02-08T20:31:23.080Z,31.88
2023-02-08T20:33:51.406Z,38.13
2023-02-08T20:36:22.670Z,34.17
2023-02-08T20:38:51.598Z,30.63
2023-02-08T20:41:20.808Z,40.80
2023-02-08T20:43:51.496Z,36.80
2023-02-08T20:46:23.379Z,33.45
2023-02-08T20:48:51.930Z,40.38
2023-02-08T20:51:23.015Z,32.15
2023-02-08T20:53:55.321Z,33.28
2023-02-08T20:56:25.778Z,33.70
2023-02-08T20:58:55.255Z,35.10
2023-02-08T21:01:25.655Z,35.25
2023-02-08T21:03:54.528Z,34.35
2023-02-08T21:06:29.480Z,37.97
2023-02-08T21:08:58.101Z,29.88
2023-02-08T21:11:30.930Z,33.60
2023-02-08T21:14:01.282Z,33.83
2023-02-08T21:16:30.039Z,34.88
2023-02-08T21:18:58.161Z,33.53
2023-02-08T21:21:28.009Z,35.90
2023-02-08T21:23:57.841Z,34.50
2023-02-08T21:26:28.308Z,36.50
2023-02-08T21:28:58.674Z,35.87
2023-02-08T21:31:26.922Z,37.33
2023-02-08T21:33:54.936Z,35.43
2023-02-08T21:36:25.065Z,36.55
2023-02-08T21:38:54.113Z,36.47
2023-02-08T21:41:24.316Z,39.30
2023-02-08T21:43:53.989Z,37.87
2023-02-08T21:46:22.403Z,37.10
2023-02-08T21:49:07.778Z,34.23
2023-02-08T21:51:52.865Z,35.88
2023-02-08T21:54:42.973Z,38.15
2023-02-08T21:57:14.301Z,36.80
2023-02-08T21:59:43.892Z,37.53
2023-02-08T22:02:21.757Z,41.03
2023-02-08T22:05:07.660Z,35.77
2023-02-08T22:07:42.910Z,32.37
2023-02-08T22:10:14.136Z,38.27
2023-02-08T22:12:42.562Z,37.20
2023-02-08T22:15:11.566Z,36.50
2023-02-08T22:17:39.525Z,35.63
2023-02-08T22:20:08.181Z,37.03
2023-02-08T22:22:35.952Z,37.60
2023-02-08T22:25:03.704Z,35.17
2023-02-08T22:27:32.858Z,42.33
2023-02-08T22:30:00.594Z,43.67
2023-02-08T22:32:28.468Z,36.67
2023-02-08T22:34:56.261Z,34.97
2023-02-08T22:37:24.061Z,36.60
2023-02-08T22:39:51.868Z,35.17
2023-02-08T22:42:19.605Z,37.87
2023-02-08T22:44:48.636Z,34.83
2023-02-08T22:47:16.372Z,36.47
2023-02-08T22:49:44.120Z,48.37
2023-02-08T22:52:14.434Z,41.43
2023-02-08T22:54:42.745Z,41.67
2023-02-08T23:01:18.848Z,39.47
2023-02-08T23:03:46.596Z,36.90
2023-02-08T23:06:17.312Z,34.70
2023-02-08T23:08:45.645Z,33.80
2023-02-08T23:11:14.687Z,40.63
2023-02-08T23:13:42.472Z,39.60
2023-02-08T23:16:13.499Z,36.20
2023-02-08T23:18:42.976Z,37.90
2023-02-08T23:21:12.794Z,34.70
2023-02-08T23:23:40.892Z,39.37
2023-02-08T23:26:09.972Z,38.73
2023-02-08T23:28:38.550Z,37.30
2023-02-08T23:31:07.414Z,38.37
2023-02-08T23:33:38.870Z,41.27
2023-02-08T23:36:10.179Z,39.00
2023-02-08T23:38:38.165Z,34.43
2023-02-08T23:41:07.134Z,37.63
2023-02-08T23:43:35.792Z,35.13
2023-02-08T23:46:07.545Z,37.57
2023-02-08T23:48:37.359Z,38.13
2023-02-08T23:51:08.410Z,39.50
2023-02-08T23:53:37.897Z,37.73
2023-02-08T23:56:11.274Z,38.37
2023-02-08T23:58:39.895Z,36.30
